CYOY

C J.H.L.(Joe) Lecomte) Heliport

Valcartier, Quebec, Canada
METAR CYOY 182300Z AUTO 14002KT 9SM CLR 22/14 A2994 RMK SLP140
Observed Flight Rules
Aug-18 @ 23:00 UTC (46 minutes ago) Visual Flight Rules
Wind Visibility Clouds
140° at 2 knots 9 miles
  • Clear skies
Temperatures Readings
Current 22°C / 72°F
Dewpoint 14°C / 57°F
Humidity 61%
Altimeter 29.94" Hg
Pressure 1014 hPa
Elevation 168
METAR CYOY 182300Z AUTO 14002KT 9SM CLR 22/14 A2994 RMK SLP140
Observed Flight Rules
Aug-18 @ 23:00 UTC
(46 minutes ago)
VFR
Wind Visibility
140° at 2 knots 9 miles
Clouds
  • Clear skies
Temperature Dewpoint
22°C / 72°F 14°C / 57°F
Humidity Altimeter Pressure
61% 29.94" Hg 1014 hPa